sensor_id;sensor_type;location;lat;lon;timestamp;P1;durP1;ratioP1;P2;durP2;ratioP2
23578;SDS011;11967;50.852;4.400;2023-03-31T00:00:04;19.45;;;3.15;;
23578;SDS011;11967;50.852;4.400;2023-03-31T00:02:35;20.58;;;3.33;;
23578;SDS011;11967;50.852;4.400;2023-03-31T00:05:02;25.60;;;3.42;;
23578;SDS011;11967;50.852;4.400;2023-03-31T00:07:27;23.05;;;3.75;;
23578;SDS011;11967;50.852;4.400;2023-03-31T00:09:53;19.38;;;3.00;;
23578;SDS011;11967;50.852;4.400;2023-03-31T00:12:21;16.10;;;3.03;;
23578;SDS011;11967;50.852;4.400;2023-03-31T00:14:47;17.75;;;3.15;;
23578;SDS011;11967;50.852;4.400;2023-03-31T00:17:13;16.30;;;3.22;;
23578;SDS011;11967;50.852;4.400;2023-03-31T00:19:39;17.88;;;3.55;;
23578;SDS011;11967;50.852;4.400;2023-03-31T00:22:06;13.88;;;3.33;;
23578;SDS011;11967;50.852;4.400;2023-03-31T00:24:32;17.15;;;3.10;;
23578;SDS011;11967;50.852;4.400;2023-03-31T00:27:01;20.40;;;3.50;;
23578;SDS011;11967;50.852;4.400;2023-03-31T00:29:27;18.15;;;3.70;;
23578;SDS011;11967;50.852;4.400;2023-03-31T00:31:53;19.40;;;3.65;;
23578;SDS011;11967;50.852;4.400;2023-03-31T00:34:20;14.43;;;3.60;;
23578;SDS011;11967;50.852;4.400;2023-03-31T00:36:46;14.18;;;3.33;;
23578;SDS011;11967;50.852;4.400;2023-03-31T00:39:13;20.55;;;3.38;;
23578;SDS011;11967;50.852;4.400;2023-03-31T00:41:40;19.20;;;3.45;;
23578;SDS011;11967;50.852;4.400;2023-03-31T00:46:44;20.40;;;3.60;;
23578;SDS011;11967;50.852;4.400;2023-03-31T00:49:20;21.50;;;3.45;;
23578;SDS011;11967;50.852;4.400;2023-03-31T00:52:04;16.15;;;3.03;;
23578;SDS011;11967;50.852;4.400;2023-03-31T00:54:33;19.05;;;3.35;;
23578;SDS011;11967;50.852;4.400;2023-03-31T00:57:00;20.90;;;4.13;;
23578;SDS011;11967;50.852;4.400;2023-03-31T00:59:30;19.42;;;3.42;;
23578;SDS011;11967;50.852;4.400;2023-03-31T01:04:31;17.85;;;3.70;;
23578;SDS011;11967;50.852;4.400;2023-03-31T01:07:06;16.30;;;3.13;;
23578;SDS011;11967;50.852;4.400;2023-03-31T01:09:37;18.80;;;3.33;;
23578;SDS011;11967;50.852;4.400;2023-03-31T01:12:05;16.88;;;2.80;;
23578;SDS011;11967;50.852;4.400;2023-03-31T01:14:33;20.65;;;3.33;;
23578;SDS011;11967;50.852;4.400;2023-03-31T01:16:59;14.13;;;3.05;;
23578;SDS011;11967;50.852;4.400;2023-03-31T01:27:54;18.10;;;3.13;;
23578;SDS011;11967;50.852;4.400;2023-03-31T01:33:14;13.38;;;3.05;;
23578;SDS011;11967;50.852;4.400;2023-03-31T01:36:19;13.98;;;2.50;;
23578;SDS011;11967;50.852;4.400;2023-03-31T01:39:29;14.63;;;3.25;;
23578;SDS011;11967;50.852;4.400;2023-03-31T01:42:35;15.15;;;2.83;;
23578;SDS011;11967;50.852;4.400;2023-03-31T01:47:55;13.70;;;2.38;;
23578;SDS011;11967;50.852;4.400;2023-03-31T01:50:34;13.57;;;2.58;;
23578;SDS011;11967;50.852;4.400;2023-03-31T01:53:14;16.55;;;2.80;;
23578;SDS011;11967;50.852;4.400;2023-03-31T01:56:10;13.40;;;2.65;;
23578;SDS011;11967;50.852;4.400;2023-03-31T01:59:15;9.70;;;2.30;;
23578;SDS011;11967;50.852;4.400;2023-03-31T02:01:58;9.95;;;2.20;;
23578;SDS011;11967;50.852;4.400;2023-03-31T02:04:49;9.68;;;2.10;;
23578;SDS011;11967;50.852;4.400;2023-03-31T02:07:22;12.93;;;2.45;;
23578;SDS011;11967;50.852;4.400;2023-03-31T02:09:55;12.70;;;2.08;;
23578;SDS011;11967;50.852;4.400;2023-03-31T02:12:25;11.50;;;2.40;;
23578;SDS011;11967;50.852;4.400;2023-03-31T02:14:54;11.57;;;2.15;;
23578;SDS011;11967;50.852;4.400;2023-03-31T02:17:23;13.07;;;2.10;;
23578;SDS011;11967;50.852;4.400;2023-03-31T02:19:54;10.02;;;1.95;;
23578;SDS011;11967;50.852;4.400;2023-03-31T02:22:23;12.48;;;2.40;;
23578;SDS011;11967;50.852;4.400;2023-03-31T02:24:51;8.98;;;2.28;;
23578;SDS011;11967;50.852;4.400;2023-03-31T02:27:23;11.27;;;2.30;;
23578;SDS011;11967;50.852;4.400;2023-03-31T02:29:50;10.43;;;2.13;;
23578;SDS011;11967;50.852;4.400;2023-03-31T02:32:20;12.90;;;2.28;;
23578;SDS011;11967;50.852;4.400;2023-03-31T02:34:49;8.73;;;2.33;;
23578;SDS011;11967;50.852;4.400;2023-03-31T02:37:16;9.48;;;2.13;;
23578;SDS011;11967;50.852;4.400;2023-03-31T02:39:42;9.15;;;1.95;;
23578;SDS011;11967;50.852;4.400;2023-03-31T02:42:13;10.55;;;2.35;;
23578;SDS011;11967;50.852;4.400;2023-03-31T02:44:40;15.82;;;2.17;;
23578;SDS011;11967;50.852;4.400;2023-03-31T02:47:10;10.18;;;1.92;;
23578;SDS011;11967;50.852;4.400;2023-03-31T02:49:39;7.95;;;1.80;;
23578;SDS011;11967;50.852;4.400;2023-03-31T02:52:11;9.07;;;2.00;;
23578;SDS011;11967;50.852;4.400;2023-03-31T02:57:49;13.38;;;2.53;;
23578;SDS011;11967;50.852;4.400;2023-03-31T03:06:16;13.07;;;2.20;;
23578;SDS011;11967;50.852;4.400;2023-03-31T03:09:03;10.10;;;2.10;;
23578;SDS011;11967;50.852;4.400;2023-03-31T03:16:45;13.35;;;2.40;;
23578;SDS011;11967;50.852;4.400;2023-03-31T03:19:26;12.25;;;2.15;;
23578;SDS011;11967;50.852;4.400;2023-03-31T03:21:52;13.38;;;2.33;;
23578;SDS011;11967;50.852;4.400;2023-03-31T03:24:18;13.38;;;2.45;;
23578;SDS011;11967;50.852;4.400;2023-03-31T03:26:44;11.20;;;2.08;;
23578;SDS011;11967;50.852;4.400;2023-03-31T03:29:10;14.48;;;2.80;;
23578;SDS011;11967;50.852;4.400;2023-03-31T03:31:38;18.30;;;2.92;;
23578;SDS011;11967;50.852;4.400;2023-03-31T03:34:04;13.15;;;2.40;;
23578;SDS011;11967;50.852;4.400;2023-03-31T03:36:31;16.58;;;2.78;;
23578;SDS011;11967;50.852;4.400;2023-03-31T03:38:57;12.40;;;3.40;;
23578;SDS011;11967;50.852;4.400;2023-03-31T03:41:22;10.18;;;2.20;;
23578;SDS011;11967;50.852;4.400;2023-03-31T03:43:48;10.45;;;1.85;;
23578;SDS011;11967;50.852;4.400;2023-03-31T03:46:14;9.73;;;1.77;;
23578;SDS011;11967;50.852;4.400;2023-03-31T03:48:39;7.80;;;1.30;;
23578;SDS011;11967;50.852;4.400;2023-03-31T03:51:05;8.23;;;1.20;;
23578;SDS011;11967;50.852;4.400;2023-03-31T03:53:31;4.32;;;0.90;;
23578;SDS011;11967;50.852;4.400;2023-03-31T03:55:57;2.25;;;0.55;;
23578;SDS011;11967;50.852;4.400;2023-03-31T03:58:23;0.65;;;0.60;;
23578;SDS011;11967;50.852;4.400;2023-03-31T04:00:48;1.33;;;0.55;;
23578;SDS011;11967;50.852;4.400;2023-03-31T04:03:14;2.35;;;0.60;;
23578;SDS011;11967;50.852;4.400;2023-03-31T04:05:40;2.03;;;0.52;;
23578;SDS011;11967;50.852;4.400;2023-03-31T04:08:06;1.10;;;0.50;;
23578;SDS011;11967;50.852;4.400;2023-03-31T04:10:33;1.08;;;0.50;;
23578;SDS011;11967;50.852;4.400;2023-03-31T04:13:05;3.17;;;0.70;;
23578;SDS011;11967;50.852;4.400;2023-03-31T04:15:31;3.33;;;0.60;;
23578;SDS011;11967;50.852;4.400;2023-03-31T04:17:56;1.70;;;0.80;;
23578;SDS011;11967;50.852;4.400;2023-03-31T04:20:23;4.25;;;0.90;;
23578;SDS011;11967;50.852;4.400;2023-03-31T04:22:55;6.10;;;1.10;;
23578;SDS011;11967;50.852;4.400;2023-03-31T04:25:21;3.90;;;1.05;;
23578;SDS011;11967;50.852;4.400;2023-03-31T04:27:47;6.47;;;1.58;;
23578;SDS011;11967;50.852;4.400;2023-03-31T04:30:17;4.97;;;1.50;;
23578;SDS011;11967;50.852;4.400;2023-03-31T04:32:47;8.60;;;1.92;;
23578;SDS011;11967;50.852;4.400;2023-03-31T04:35:17;12.07;;;2.00;;
23578;SDS011;11967;50.852;4.400;2023-03-31T04:37:45;6.82;;;1.58;;
23578;SDS011;11967;50.852;4.400;2023-03-31T04:40:12;11.27;;;1.85;;
23578;SDS011;11967;50.852;4.400;2023-03-31T04:42:37;12.80;;;2.60;;
23578;SDS011;11967;50.852;4.400;2023-03-31T04:45:07;8.23;;;2.00;;
23578;SDS011;11967;50.852;4.400;2023-03-31T04:47:36;9.77;;;2.13;;
23578;SDS011;11967;50.852;4.400;2023-03-31T04:50:03;11.60;;;2.33;;
23578;SDS011;11967;50.852;4.400;2023-03-31T04:52:29;13.45;;;2.75;;
23578;SDS011;11967;50.852;4.400;2023-03-31T04:54:55;17.83;;;2.50;;
23578;SDS011;11967;50.852;4.400;2023-03-31T04:57:21;15.30;;;3.08;;
23578;SDS011;11967;50.852;4.400;2023-03-31T04:59:46;12.70;;;3.25;;
23578;SDS011;11967;50.852;4.400;2023-03-31T05:02:12;12.02;;;2.60;;
23578;SDS011;11967;50.852;4.400;2023-03-31T05:04:37;18.92;;;2.92;;
23578;SDS011;11967;50.852;4.400;2023-03-31T05:07:04;16.98;;;3.08;;
23578;SDS011;11967;50.852;4.400;2023-03-31T05:09:30;11.90;;;2.47;;
23578;SDS011;11967;50.852;4.400;2023-03-31T05:11:56;15.10;;;2.72;;
23578;SDS011;11967;50.852;4.400;2023-03-31T05:14:21;15.57;;;2.53;;
23578;SDS011;11967;50.852;4.400;2023-03-31T05:16:48;15.60;;;2.67;;
23578;SDS011;11967;50.852;4.400;2023-03-31T05:19:14;15.50;;;3.08;;
23578;SDS011;11967;50.852;4.400;2023-03-31T05:21:40;14.82;;;2.60;;
23578;SDS011;11967;50.852;4.400;2023-03-31T05:24:05;10.10;;;2.72;;
23578;SDS011;11967;50.852;4.400;2023-03-31T05:26:31;16.45;;;3.42;;
23578;SDS011;11967;50.852;4.400;2023-03-31T05:28:57;17.27;;;2.50;;
23578;SDS011;11967;50.852;4.400;2023-03-31T05:31:24;11.48;;;2.38;;
23578;SDS011;11967;50.852;4.400;2023-03-31T05:33:50;15.32;;;2.70;;
23578;SDS011;11967;50.852;4.400;2023-03-31T05:36:16;16.77;;;2.97;;
23578;SDS011;11967;50.852;4.400;2023-03-31T05:38:41;22.25;;;3.13;;
23578;SDS011;11967;50.852;4.400;2023-03-31T05:41:08;15.60;;;2.80;;
23578;SDS011;11967;50.852;4.400;2023-03-31T05:43:35;15.10;;;2.80;;
23578;SDS011;11967;50.852;4.400;2023-03-31T05:46:02;11.73;;;2.60;;
23578;SDS011;11967;50.852;4.400;2023-03-31T05:48:28;13.73;;;2.42;;
23578;SDS011;11967;50.852;4.400;2023-03-31T05:50:57;14.68;;;3.00;;
23578;SDS011;11967;50.852;4.400;2023-03-31T05:53:23;14.57;;;3.30;;
23578;SDS011;11967;50.852;4.400;2023-03-31T05:55:55;20.85;;;3.53;;
23578;SDS011;11967;50.852;4.400;2023-03-31T05:58:22;14.57;;;2.67;;
23578;SDS011;11967;50.852;4.400;2023-03-31T06:00:48;16.52;;;3.47;;
23578;SDS011;11967;50.852;4.400;2023-03-31T06:03:13;14.45;;;3.28;;
23578;SDS011;11967;50.852;4.400;2023-03-31T06:05:45;18.70;;;3.30;;
23578;SDS011;11967;50.852;4.400;2023-03-31T06:08:12;46.88;;;15.15;;
23578;SDS011;11967;50.852;4.400;2023-03-31T06:10:37;36.15;;;12.55;;
23578;SDS011;11967;50.852;4.400;2023-03-31T06:13:03;15.65;;;3.65;;
23578;SDS011;11967;50.852;4.400;2023-03-31T06:15:28;19.70;;;3.40;;
23578;SDS011;11967;50.852;4.400;2023-03-31T06:17:55;18.23;;;3.60;;
23578;SDS011;11967;50.852;4.400;2023-03-31T06:20:21;20.85;;;3.28;;
23578;SDS011;11967;50.852;4.400;2023-03-31T06:22:46;15.98;;;3.00;;
23578;SDS011;11967;50.852;4.400;2023-03-31T06:25:12;20.48;;;4.18;;
23578;SDS011;11967;50.852;4.400;2023-03-31T06:27:38;18.58;;;4.00;;
23578;SDS011;11967;50.852;4.400;2023-03-31T06:30:15;16.25;;;3.33;;
23578;SDS011;11967;50.852;4.400;2023-03-31T06:32:41;23.42;;;3.55;;
23578;SDS011;11967;50.852;4.400;2023-03-31T06:35:07;24.05;;;3.92;;
23578;SDS011;11967;50.852;4.400;2023-03-31T06:37:33;20.58;;;3.72;;
23578;SDS011;11967;50.852;4.400;2023-03-31T06:40:02;20.10;;;3.50;;
23578;SDS011;11967;50.852;4.400;2023-03-31T06:42:31;22.23;;;3.80;;
23578;SDS011;11967;50.852;4.400;2023-03-31T06:44:58;18.30;;;3.92;;
23578;SDS011;11967;50.852;4.400;2023-03-31T06:47:24;16.80;;;3.97;;
23578;SDS011;11967;50.852;4.400;2023-03-31T06:49:50;19.65;;;3.78;;
23578;SDS011;11967;50.852;4.400;2023-03-31T06:52:15;18.92;;;4.00;;
23578;SDS011;11967;50.852;4.400;2023-03-31T06:54:41;19.85;;;3.65;;
23578;SDS011;11967;50.852;4.400;2023-03-31T06:57:07;18.27;;;4.18;;
23578;SDS011;11967;50.852;4.400;2023-03-31T06:59:32;22.13;;;4.55;;
23578;SDS011;11967;50.852;4.400;2023-03-31T07:01:58;21.48;;;5.40;;
23578;SDS011;11967;50.852;4.400;2023-03-31T07:04:23;19.33;;;4.03;;
23578;SDS011;11967;50.852;4.400;2023-03-31T07:06:49;22.88;;;4.63;;
23578;SDS011;11967;50.852;4.400;2023-03-31T07:09:15;25.67;;;4.43;;
23578;SDS011;11967;50.852;4.400;2023-03-31T07:11:42;24.85;;;4.20;;
23578;SDS011;11967;50.852;4.400;2023-03-31T07:14:08;26.00;;;3.95;;
23578;SDS011;11967;50.852;4.400;2023-03-31T07:16:34;20.77;;;4.32;;
23578;SDS011;11967;50.852;4.400;2023-03-31T07:19:06;27.13;;;4.53;;
23578;SDS011;11967;50.852;4.400;2023-03-31T07:21:35;21.90;;;3.80;;
23578;SDS011;11967;50.852;4.400;2023-03-31T07:24:10;19.52;;;3.90;;
23578;SDS011;11967;50.852;4.400;2023-03-31T07:26:42;20.38;;;3.90;;
23578;SDS011;11967;50.852;4.400;2023-03-31T07:29:12;19.75;;;3.63;;
23578;SDS011;11967;50.852;4.400;2023-03-31T07:31:39;24.35;;;4.43;;
23578;SDS011;11967;50.852;4.400;2023-03-31T07:34:05;22.88;;;3.95;;
23578;SDS011;11967;50.852;4.400;2023-03-31T07:36:30;25.10;;;4.28;;
23578;SDS011;11967;50.852;4.400;2023-03-31T07:38:56;27.20;;;4.72;;
23578;SDS011;11967;50.852;4.400;2023-03-31T07:41:22;25.40;;;4.63;;
23578;SDS011;11967;50.852;4.400;2023-03-31T07:43:49;24.30;;;5.95;;
23578;SDS011;11967;50.852;4.400;2023-03-31T07:46:19;23.02;;;4.53;;
23578;SDS011;11967;50.852;4.400;2023-03-31T07:48:50;19.30;;;4.20;;
23578;SDS011;11967;50.852;4.400;2023-03-31T07:51:20;23.73;;;4.43;;
23578;SDS011;11967;50.852;4.400;2023-03-31T07:53:53;24.75;;;4.68;;
23578;SDS011;11967;50.852;4.400;2023-03-31T07:56:19;25.45;;;4.93;;
23578;SDS011;11967;50.852;4.400;2023-03-31T07:58:52;22.10;;;4.53;;
23578;SDS011;11967;50.852;4.400;2023-03-31T08:01:19;26.15;;;5.78;;
23578;SDS011;11967;50.852;4.400;2023-03-31T08:03:46;34.88;;;5.50;;
23578;SDS011;11967;50.852;4.400;2023-03-31T08:06:22;24.80;;;4.90;;
23578;SDS011;11967;50.852;4.400;2023-03-31T08:08:49;29.40;;;5.88;;
23578;SDS011;11967;50.852;4.400;2023-03-31T08:11:15;31.00;;;4.72;;
23578;SDS011;11967;50.852;4.400;2023-03-31T08:13:41;26.70;;;4.57;;
23578;SDS011;11967;50.852;4.400;2023-03-31T08:16:07;26.83;;;5.30;;
23578;SDS011;11967;50.852;4.400;2023-03-31T08:18:33;30.23;;;4.85;;
23578;SDS011;11967;50.852;4.400;2023-03-31T08:20:59;28.88;;;4.78;;
23578;SDS011;11967;50.852;4.400;2023-03-31T08:23:25;24.02;;;4.47;;
23578;SDS011;11967;50.852;4.400;2023-03-31T08:25:50;25.45;;;4.47;;
23578;SDS011;11967;50.852;4.400;2023-03-31T08:28:16;21.25;;;3.95;;
23578;SDS011;11967;50.852;4.400;2023-03-31T08:30:42;28.85;;;5.07;;
23578;SDS011;11967;50.852;4.400;2023-03-31T08:33:08;24.23;;;4.82;;
23578;SDS011;11967;50.852;4.400;2023-03-31T08:35:36;19.55;;;4.22;;
23578;SDS011;11967;50.852;4.400;2023-03-31T08:38:02;22.02;;;3.92;;
23578;SDS011;11967;50.852;4.400;2023-03-31T08:40:28;25.20;;;4.10;;
23578;SDS011;11967;50.852;4.400;2023-03-31T08:42:57;24.13;;;3.95;;
23578;SDS011;11967;50.852;4.400;2023-03-31T08:45:40;21.88;;;3.95;;
23578;SDS011;11967;50.852;4.400;2023-03-31T08:51:13;19.60;;;4.63;;
23578;SDS011;11967;50.852;4.400;2023-03-31T08:56:40;22.52;;;4.45;;
23578;SDS011;11967;50.852;4.400;2023-03-31T08:59:17;23.63;;;5.57;;
23578;SDS011;11967;50.852;4.400;2023-03-31T09:02:16;40.22;;;12.82;;
23578;SDS011;11967;50.852;4.400;2023-03-31T09:10:31;27.55;;;4.82;;
23578;SDS011;11967;50.852;4.400;2023-03-31T09:15:39;23.23;;;4.25;;
23578;SDS011;11967;50.852;4.400;2023-03-31T09:18:34;23.00;;;4.45;;
23578;SDS011;11967;50.852;4.400;2023-03-31T09:23:39;28.05;;;4.55;;
23578;SDS011;11967;50.852;4.400;2023-03-31T09:29:10;26.02;;;4.35;;
23578;SDS011;11967;50.852;4.400;2023-03-31T09:31:43;31.65;;;5.68;;
23578;SDS011;11967;50.852;4.400;2023-03-31T09:34:14;29.77;;;5.00;;
23578;SDS011;11967;50.852;4.400;2023-03-31T09:36:44;26.05;;;3.90;;
23578;SDS011;11967;50.852;4.400;2023-03-31T09:39:11;24.85;;;5.50;;
23578;SDS011;11967;50.852;4.400;2023-03-31T09:41:39;23.48;;;4.47;;
23578;SDS011;11967;50.852;4.400;2023-03-31T09:44:12;28.20;;;4.57;;
23578;SDS011;11967;50.852;4.400;2023-03-31T09:47:08;28.92;;;5.30;;
23578;SDS011;11967;50.852;4.400;2023-03-31T09:49:44;27.58;;;4.32;;
23578;SDS011;11967;50.852;4.400;2023-03-31T09:52:30;35.45;;;4.63;;
23578;SDS011;11967;50.852;4.400;2023-03-31T09:55:03;28.75;;;4.55;;
23578;SDS011;11967;50.852;4.400;2023-03-31T09:57:38;31.20;;;4.30;;
23578;SDS011;11967;50.852;4.400;2023-03-31T10:00:05;29.75;;;4.70;;
23578;SDS011;11967;50.852;4.400;2023-03-31T10:02:46;24.23;;;4.93;;
23578;SDS011;11967;50.852;4.400;2023-03-31T10:05:18;27.33;;;4.22;;
23578;SDS011;11967;50.852;4.400;2023-03-31T10:07:45;25.88;;;4.55;;
23578;SDS011;11967;50.852;4.400;2023-03-31T10:10:17;31.30;;;5.40;;
23578;SDS011;11967;50.852;4.400;2023-03-31T10:12:54;30.13;;;4.97;;
23578;SDS011;11967;50.852;4.400;2023-03-31T10:15:21;27.48;;;5.25;;
23578;SDS011;11967;50.852;4.400;2023-03-31T10:17:50;23.98;;;5.30;;
23578;SDS011;11967;50.852;4.400;2023-03-31T10:23:40;28.83;;;4.68;;
23578;SDS011;11967;50.852;4.400;2023-03-31T10:25:59;27.02;;;4.78;;
23578;SDS011;11967;50.852;4.400;2023-03-31T10:28:30;22.67;;;4.25;;
23578;SDS011;11967;50.852;4.400;2023-03-31T10:30:58;26.52;;;4.95;;
23578;SDS011;11967;50.852;4.400;2023-03-31T10:33:25;21.60;;;4.47;;
23578;SDS011;11967;50.852;4.400;2023-03-31T10:35:57;33.55;;;5.13;;
23578;SDS011;11967;50.852;4.400;2023-03-31T10:38:29;27.73;;;4.50;;
23578;SDS011;11967;50.852;4.400;2023-03-31T10:40:58;28.23;;;4.75;;
23578;SDS011;11967;50.852;4.400;2023-03-31T10:43:26;25.92;;;4.57;;
23578;SDS011;11967;50.852;4.400;2023-03-31T10:46:12;21.58;;;3.67;;
23578;SDS011;11967;50.852;4.400;2023-03-31T10:48:39;29.83;;;4.88;;
23578;SDS011;11967;50.852;4.400;2023-03-31T10:53:46;21.45;;;4.15;;
23578;SDS011;11967;50.852;4.400;2023-03-31T10:56:29;23.13;;;4.50;;
23578;SDS011;11967;50.852;4.400;2023-03-31T11:07:06;25.27;;;4.93;;
23578;SDS011;11967;50.852;4.400;2023-03-31T11:10:14;30.02;;;5.85;;
23578;SDS011;11967;50.852;4.400;2023-03-31T11:13:00;23.55;;;4.35;;
23578;SDS011;11967;50.852;4.400;2023-03-31T11:29:51;21.05;;;4.35;;
23578;SDS011;11967;50.852;4.400;2023-03-31T11:35:15;19.67;;;3.47;;
23578;SDS011;11967;50.852;4.400;2023-03-31T11:41:03;20.05;;;3.30;;
23578;SDS011;11967;50.852;4.400;2023-03-31T11:46:52;18.17;;;3.20;;
23578;SDS011;11967;50.852;4.400;2023-03-31T11:52:00;15.50;;;3.47;;
23578;SDS011;11967;50.852;4.400;2023-03-31T11:54:35;16.95;;;3.47;;
23578;SDS011;11967;50.852;4.400;2023-03-31T11:57:21;23.48;;;3.88;;
23578;SDS011;11967;50.852;4.400;2023-03-31T11:59:56;16.15;;;3.10;;
23578;SDS011;11967;50.852;4.400;2023-03-31T12:02:32;16.23;;;3.15;;
23578;SDS011;11967;50.852;4.400;2023-03-31T12:05:04;16.55;;;3.50;;
23578;SDS011;11967;50.852;4.400;2023-03-31T12:07:44;23.98;;;4.18;;
23578;SDS011;11967;50.852;4.400;2023-03-31T12:10:28;18.17;;;3.35;;
23578;SDS011;11967;50.852;4.400;2023-03-31T12:15:50;25.58;;;4.07;;
23578;SDS011;11967;50.852;4.400;2023-03-31T12:18:25;19.55;;;3.58;;
23578;SDS011;11967;50.852;4.400;2023-03-31T12:20:58;14.38;;;3.55;;
23578;SDS011;11967;50.852;4.400;2023-03-31T12:23:31;21.60;;;4.00;;
23578;SDS011;11967;50.852;4.400;2023-03-31T12:26:12;20.52;;;4.30;;
23578;SDS011;11967;50.852;4.400;2023-03-31T12:32:13;16.98;;;2.83;;
23578;SDS011;11967;50.852;4.400;2023-03-31T12:35:50;15.35;;;2.80;;
23578;SDS011;11967;50.852;4.400;2023-03-31T12:41:08;18.20;;;2.83;;
23578;SDS011;11967;50.852;4.400;2023-03-31T12:43:54;13.80;;;2.42;;
23578;SDS011;11967;50.852;4.400;2023-03-31T12:52:03;9.45;;;2.25;;
23578;SDS011;11967;50.852;4.400;2023-03-31T12:54:56;16.60;;;3.13;;
23578;SDS011;11967;50.852;4.400;2023-03-31T12:57:42;8.82;;;2.03;;
23578;SDS011;11967;50.852;4.400;2023-03-31T13:02:48;8.07;;;1.73;;
23578;SDS011;11967;50.852;4.400;2023-03-31T13:08:00;8.85;;;1.98;;
23578;SDS011;11967;50.852;4.400;2023-03-31T13:10:27;8.10;;;2.17;;
23578;SDS011;11967;50.852;4.400;2023-03-31T13:13:13;6.25;;;1.50;;
23578;SDS011;11967;50.852;4.400;2023-03-31T13:15:49;6.32;;;1.50;;
23578;SDS011;11967;50.852;4.400;2023-03-31T13:18:22;4.22;;;1.05;;
23578;SDS011;11967;50.852;4.400;2023-03-31T13:21:01;4.85;;;1.23;;
23578;SDS011;11967;50.852;4.400;2023-03-31T13:23:33;5.70;;;1.20;;
23578;SDS011;11967;50.852;4.400;2023-03-31T13:26:00;5.40;;;1.15;;
23578;SDS011;11967;50.852;4.400;2023-03-31T13:28:39;6.32;;;1.23;;
23578;SDS011;11967;50.852;4.400;2023-03-31T13:34:27;5.75;;;1.25;;
23578;SDS011;11967;50.852;4.400;2023-03-31T13:37:36;5.70;;;1.10;;
23578;SDS011;11967;50.852;4.400;2023-03-31T13:51:50;5.68;;;1.30;;
23578;SDS011;11967;50.852;4.400;2023-03-31T13:54:39;5.10;;;1.15;;
23578;SDS011;11967;50.852;4.400;2023-03-31T14:05:32;6.32;;;1.10;;
23578;SDS011;11967;50.852;4.400;2023-03-31T14:08:22;3.35;;;1.00;;
23578;SDS011;11967;50.852;4.400;2023-03-31T14:16:49;2.22;;;0.88;;
23578;SDS011;11967;50.852;4.400;2023-03-31T14:31:03;4.68;;;0.98;;
23578;SDS011;11967;50.852;4.400;2023-03-31T14:37:03;2.03;;;0.80;;
23578;SDS011;11967;50.852;4.400;2023-03-31T14:39:42;1.83;;;0.80;;
23578;SDS011;11967;50.852;4.400;2023-03-31T14:42:12;2.92;;;1.00;;
23578;SDS011;11967;50.852;4.400;2023-03-31T14:44:40;4.20;;;1.15;;
23578;SDS011;11967;50.852;4.400;2023-03-31T14:47:22;3.95;;;1.05;;
23578;SDS011;11967;50.852;4.400;2023-03-31T14:52:32;4.43;;;1.00;;
23578;SDS011;11967;50.852;4.400;2023-03-31T14:54:59;3.85;;;1.15;;
23578;SDS011;11967;50.852;4.400;2023-03-31T14:57:34;3.22;;;1.10;;
23578;SDS011;11967;50.852;4.400;2023-03-31T15:00:05;2.90;;;0.93;;
23578;SDS011;11967;50.852;4.400;2023-03-31T15:02:34;2.60;;;0.90;;
23578;SDS011;11967;50.852;4.400;2023-03-31T15:05:05;5.50;;;1.50;;
23578;SDS011;11967;50.852;4.400;2023-03-31T15:07:34;4.47;;;2.00;;
23578;SDS011;11967;50.852;4.400;2023-03-31T15:10:00;3.72;;;0.90;;
23578;SDS011;11967;50.852;4.400;2023-03-31T15:12:27;3.17;;;1.00;;
23578;SDS011;11967;50.852;4.400;2023-03-31T15:14:54;4.38;;;1.10;;
23578;SDS011;11967;50.852;4.400;2023-03-31T15:17:31;3.90;;;1.23;;
23578;SDS011;11967;50.852;4.400;2023-03-31T15:20:46;5.25;;;1.25;;
23578;SDS011;11967;50.852;4.400;2023-03-31T15:22:55;3.25;;;1.00;;
23578;SDS011;11967;50.852;4.400;2023-03-31T15:25:23;3.35;;;1.10;;
23578;SDS011;11967;50.852;4.400;2023-03-31T15:27:54;5.00;;;1.30;;
23578;SDS011;11967;50.852;4.400;2023-03-31T15:30:24;3.65;;;1.35;;
23578;SDS011;11967;50.852;4.400;2023-03-31T15:32:52;3.53;;;1.20;;
23578;SDS011;11967;50.852;4.400;2023-03-31T15:35:31;5.25;;;1.30;;
23578;SDS011;11967;50.852;4.400;2023-03-31T15:37:58;3.08;;;1.05;;
23578;SDS011;11967;50.852;4.400;2023-03-31T15:40:28;4.28;;;1.08;;
23578;SDS011;11967;50.852;4.400;2023-03-31T15:45:37;8.93;;;1.50;;
23578;SDS011;11967;50.852;4.400;2023-03-31T15:51:00;5.40;;;1.42;;
23578;SDS011;11967;50.852;4.400;2023-03-31T15:53:37;5.35;;;1.52;;
23578;SDS011;11967;50.852;4.400;2023-03-31T15:58:59;6.57;;;1.50;;
23578;SDS011;11967;50.852;4.400;2023-03-31T16:01:45;8.93;;;1.67;;
23578;SDS011;11967;50.852;4.400;2023-03-31T16:06:45;5.05;;;1.50;;
23578;SDS011;11967;50.852;4.400;2023-03-31T16:11:43;9.05;;;2.22;;
23578;SDS011;11967;50.852;4.400;2023-03-31T16:14:14;8.75;;;2.00;;
23578;SDS011;11967;50.852;4.400;2023-03-31T16:16:47;8.82;;;1.75;;
23578;SDS011;11967;50.852;4.400;2023-03-31T16:19:19;9.00;;;2.20;;
23578;SDS011;11967;50.852;4.400;2023-03-31T16:21:48;10.50;;;2.25;;
23578;SDS011;11967;50.852;4.400;2023-03-31T16:24:18;9.77;;;2.05;;
23578;SDS011;11967;50.852;4.400;2023-03-31T16:26:45;9.07;;;1.98;;
23578;SDS011;11967;50.852;4.400;2023-03-31T16:29:19;7.95;;;2.03;;
23578;SDS011;11967;50.852;4.400;2023-03-31T16:31:46;9.80;;;2.50;;
23578;SDS011;11967;50.852;4.400;2023-03-31T16:34:12;10.77;;;2.40;;
23578;SDS011;11967;50.852;4.400;2023-03-31T16:36:38;9.52;;;2.03;;
23578;SDS011;11967;50.852;4.400;2023-03-31T16:39:04;13.95;;;2.50;;
23578;SDS011;11967;50.852;4.400;2023-03-31T16:41:30;7.38;;;2.22;;
23578;SDS011;11967;50.852;4.400;2023-03-31T16:44:01;11.20;;;2.20;;
23578;SDS011;11967;50.852;4.400;2023-03-31T16:46:27;10.07;;;2.42;;
23578;SDS011;11967;50.852;4.400;2023-03-31T16:48:53;10.80;;;2.30;;
23578;SDS011;11967;50.852;4.400;2023-03-31T16:51:19;11.85;;;2.38;;
23578;SDS011;11967;50.852;4.400;2023-03-31T16:53:47;10.60;;;1.90;;
23578;SDS011;11967;50.852;4.400;2023-03-31T16:56:14;9.52;;;2.13;;
23578;SDS011;11967;50.852;4.400;2023-03-31T16:58:41;12.63;;;2.72;;
23578;SDS011;11967;50.852;4.400;2023-03-31T17:01:08;9.95;;;2.42;;
23578;SDS011;11967;50.852;4.400;2023-03-31T17:03:34;12.57;;;2.60;;
23578;SDS011;11967;50.852;4.400;2023-03-31T17:06:06;11.70;;;1.98;;
23578;SDS011;11967;50.852;4.400;2023-03-31T17:08:37;7.32;;;1.90;;
23578;SDS011;11967;50.852;4.400;2023-03-31T17:11:05;6.75;;;1.67;;
23578;SDS011;11967;50.852;4.400;2023-03-31T17:13:35;10.48;;;2.92;;
23578;SDS011;11967;50.852;4.400;2023-03-31T17:16:03;7.28;;;1.80;;
23578;SDS011;11967;50.852;4.400;2023-03-31T17:18:29;12.07;;;2.40;;
23578;SDS011;11967;50.852;4.400;2023-03-31T17:21:01;9.05;;;1.95;;
23578;SDS011;11967;50.852;4.400;2023-03-31T17:23:34;11.63;;;1.90;;
23578;SDS011;11967;50.852;4.400;2023-03-31T17:26:02;9.82;;;2.33;;
23578;SDS011;11967;50.852;4.400;2023-03-31T17:28:29;12.02;;;2.70;;
23578;SDS011;11967;50.852;4.400;2023-03-31T17:30:55;10.95;;;2.10;;
23578;SDS011;11967;50.852;4.400;2023-03-31T17:33:21;10.57;;;2.15;;
23578;SDS011;11967;50.852;4.400;2023-03-31T17:35:47;11.18;;;2.33;;
23578;SDS011;11967;50.852;4.400;2023-03-31T17:38:13;7.70;;;2.28;;
23578;SDS011;11967;50.852;4.400;2023-03-31T17:40:39;9.32;;;2.42;;
23578;SDS011;11967;50.852;4.400;2023-03-31T17:43:05;11.73;;;2.47;;
23578;SDS011;11967;50.852;4.400;2023-03-31T17:45:32;11.73;;;2.95;;
23578;SDS011;11967;50.852;4.400;2023-03-31T17:47:58;9.30;;;2.67;;
23578;SDS011;11967;50.852;4.400;2023-03-31T17:50:25;14.55;;;3.38;;
23578;SDS011;11967;50.852;4.400;2023-03-31T17:52:52;21.05;;;3.95;;